KCAE/CAE METAR and TAF weather

Enter ICAO airport designator
Station Type Date Time Source
KCAE METAR 2020/09/25 04:56 UTC NOAA

KCAE 250456Z 08007KT 10SM BKN050 OVC075 21/18 A3000 RMK AO2 SLP157 T02060183 402670161


Station Type Date Time Source
KCAE Decoded METAR 2020/09/25 04:56 UTC NOAA

COLUMBIA METROPOLITAN AIRPORT , SC, United States (KCAE) 33-57N 081-07W 73M
Sep 25, 2020 - 12:56 AM EDT / 2020.09.25 0456 UTC
Wind: from the E (080 degrees) at 8 MPH (7 KT):0
Visibility: 10 mile(s):0
Sky conditions: overcast
Temperature: 69.1 F (20.6 C)
Dew Point: 64.9 F (18.3 C)
Relative Humidity: 86%
Pressure (altimeter): 30 in. Hg (1015 hPa)
ob: KCAE 250456Z 08007KT 10SM BKN050 OVC075 21/18 A3000 RMK AO2 SLP157 T02060183 402670161
cycle: 5

Station Type Date Time Source
KCAE TAF 2020/09/25 06:46 UTC NOAA

TAF KCAE 250539Z 2506/2606 09007KT P6SM -SHRA SCT030 BKN050
FM250800 10007KT 6SM -SHRA OVC015 WS020/18034KT
TEMPO 2508/2512 5SM BR BKN007
FM251400 16009KT 6SM -SHRA OVC020
FM251800 19008KT P6SM VCTS BKN025CB
TEMPO 2518/2522 3SM SHRA BKN015
FM260000 VRB04KT P6SM VCSH SCT020 BKN035

Example: see airport list